createdAt,value
2017-05-31T00:00:17.119Z,68.42
2017-05-31T00:00:57.692Z,68.61
2017-05-31T00:01:38.282Z,68.71
2017-05-31T00:02:18.868Z,68.61
2017-05-31T00:02:59.457Z,68.71
2017-05-31T00:03:40.033Z,68.04
2017-05-31T00:04:20.613Z,68.04
2017-05-31T00:05:01.195Z,67.65
2017-05-31T00:05:41.771Z,68.13
2017-05-31T00:06:22.356Z,67.84
2017-05-31T00:07:02.951Z,68.23
2017-05-31T00:07:43.550Z,68.13
2017-05-31T00:08:24.125Z,68.1
2017-05-31T00:09:04.707Z,68.58
2017-05-31T00:09:45.303Z,68.52
2017-05-31T00:10:25.900Z,68.68
2017-05-31T00:11:06.474Z,68.96
2017-05-31T00:11:47.059Z,69.54
2017-05-31T00:12:27.648Z,69.35
2017-05-31T00:13:08.231Z,68.19
2017-05-31T00:13:48.841Z,68.29
2017-05-31T00:14:29.437Z,68.77
2017-05-31T00:15:10.025Z,68.48
2017-05-31T00:15:50.604Z,68.68
2017-05-31T00:16:31.180Z,68.68
2017-05-31T00:17:11.751Z,68.38
2017-05-31T00:17:52.335Z,68.61
2017-05-31T00:18:32.907Z,68.87
2017-05-31T00:19:13.493Z,68.68
2017-05-31T00:19:54.075Z,68.77
2017-05-31T00:20:34.650Z,69.45
2017-05-31T00:21:15.227Z,69.64
2017-05-31T00:21:55.824Z,69.54
2017-05-31T00:22:36.405Z,69.64
2017-05-31T00:23:17.000Z,69.73
2017-05-31T00:23:57.581Z,69.93
2017-05-31T00:24:38.154Z,70.02
2017-05-31T00:25:18.738Z,70.41
2017-05-31T00:25:59.335Z,69.83
2017-05-31T00:26:39.923Z,70.31
2017-05-31T00:27:20.508Z,69.54
2017-05-31T00:28:01.094Z,69.73
2017-05-31T00:28:41.677Z,69.54
2017-05-31T00:29:22.259Z,68.87
2017-05-31T00:30:02.847Z,68.96
2017-05-31T00:30:43.433Z,69.35
2017-05-31T00:31:24.017Z,68.87
2017-05-31T00:32:04.604Z,68.96
2017-05-31T00:32:45.179Z,69.54
2017-05-31T00:33:25.770Z,69.73
2017-05-31T00:34:06.337Z,70.09
2017-05-31T00:34:46.922Z,70.12
2017-05-31T00:35:27.494Z,70.31
2017-05-31T00:36:08.068Z,70.86
2017-05-31T00:36:48.664Z,71.47
2017-05-31T00:37:29.249Z,71.18
2017-05-31T00:38:09.838Z,70.79
2017-05-31T00:38:50.431Z,70.7
2017-05-31T00:39:31.027Z,71.08
2017-05-31T00:40:11.608Z,70.89
2017-05-31T00:40:52.187Z,71.08
2017-05-31T00:41:32.771Z,71.18
2017-05-31T00:42:13.355Z,70.79
2017-05-31T00:42:53.950Z,70.98
2017-05-31T00:43:34.534Z,70.31
2017-05-31T00:44:15.116Z,70.12
2017-05-31T00:44:55.694Z,70.02
2017-05-31T00:45:36.267Z,70.02
2017-05-31T00:46:16.856Z,70.02
2017-05-31T00:46:57.441Z,70.12
2017-05-31T00:47:38.012Z,70.12
2017-05-31T00:48:18.595Z,70.12
2017-05-31T00:48:59.183Z,70.12
2017-05-31T00:49:39.758Z,70.41
2017-05-31T00:50:20.347Z,70.02
2017-05-31T00:51:00.935Z,69.83
2017-05-31T00:51:41.526Z,69.93
2017-05-31T00:52:22.122Z,70.31
2017-05-31T00:53:02.706Z,70.21
2017-05-31T00:53:43.297Z,69.83
2017-05-31T00:54:23.892Z,70.02
2017-05-31T00:55:04.482Z,69.93
2017-05-31T00:55:45.063Z,69.64
2017-05-31T00:56:25.671Z,70.12
2017-05-31T00:57:06.256Z,70.02
2017-05-31T00:57:46.846Z,69.83
2017-05-31T00:58:27.430Z,69.48
2017-05-31T00:59:08.017Z,69.54
2017-05-31T00:59:48.603Z,69.54
2017-05-31T01:00:29.188Z,69.67
2017-05-31T01:01:09.758Z,69.67
2017-05-31T01:01:50.341Z,69.57
2017-05-31T01:02:30.936Z,69.67
2017-05-31T01:03:11.521Z,69.54
2017-05-31T01:03:52.109Z,69.38
2017-05-31T01:04:32.698Z,69.29
2017-05-31T01:05:13.279Z,69.57
2017-05-31T01:05:53.856Z,69.57
2017-05-31T01:06:34.433Z,68.9
2017-05-31T01:07:15.023Z,68.61
2017-05-31T01:07:55.603Z,68.58
2017-05-31T01:08:36.204Z,68.8
2017-05-31T01:09:16.796Z,69.15
2017-05-31T01:09:57.373Z,69.35
2017-05-31T01:10:37.954Z,69.45
2017-05-31T01:11:18.546Z,69.83
2017-05-31T01:11:59.149Z,69.64
2017-05-31T01:12:39.732Z,69.64
2017-05-31T01:13:20.315Z,69.45
2017-05-31T01:14:00.918Z,69.45
2017-05-31T01:14:41.505Z,70.12
2017-05-31T01:15:22.087Z,70.02
2017-05-31T01:16:02.677Z,70.7
2017-05-31T01:16:43.259Z,70.21
2017-05-31T01:17:23.842Z,70.41
2017-05-31T01:18:04.461Z,70.41
2017-05-31T01:18:45.037Z,70.02
2017-05-31T01:19:25.622Z,70.06
2017-05-31T01:20:06.215Z,69.57
2017-05-31T01:20:46.806Z,69.64
2017-05-31T01:21:27.387Z,70.25
2017-05-31T01:22:07.980Z,70.25
2017-05-31T01:22:48.554Z,70.21
2017-05-31T01:23:29.137Z,69.87
2017-05-31T01:24:09.719Z,70.15
2017-05-31T01:24:50.346Z,69.48
2017-05-31T01:25:30.942Z,69.67
2017-05-31T01:26:11.526Z,69.57
2017-05-31T01:26:52.097Z,69.57
2017-05-31T01:27:32.684Z,69.29
2017-05-31T01:28:13.266Z,69.64
2017-05-31T01:28:53.855Z,69.96
2017-05-31T01:29:34.447Z,70.02
2017-05-31T01:30:15.033Z,69.57
2017-05-31T01:30:55.616Z,70.02
2017-05-31T01:31:36.211Z,69.83
2017-05-31T01:32:16.794Z,70.25
2017-05-31T01:32:57.379Z,69.87
2017-05-31T01:33:37.962Z,69.96
2017-05-31T01:34:18.541Z,69.67
2017-05-31T01:34:59.123Z,70.02
2017-05-31T01:35:39.744Z,70.06
2017-05-31T01:36:20.331Z,70.15
2017-05-31T01:37:00.919Z,69.96
2017-05-31T01:37:41.511Z,69.64
2017-05-31T01:38:22.087Z,69.67
2017-05-31T01:39:02.675Z,69.38
2017-05-31T01:39:43.253Z,69.35
2017-05-31T01:40:23.840Z,69.48
2017-05-31T01:41:04.431Z,69.96
2017-05-31T01:41:45.031Z,69.77
2017-05-31T01:42:25.610Z,69.57
2017-05-31T01:43:06.188Z,69.64
2017-05-31T01:43:46.781Z,69.73
2017-05-31T01:44:27.379Z,69.57
2017-05-31T01:45:07.947Z,69.45
2017-05-31T01:45:48.520Z,69.35
2017-05-31T01:46:29.098Z,69.48
2017-05-31T01:47:09.690Z,69.45
2017-05-31T01:47:50.268Z,69.73
2017-05-31T01:48:30.856Z,69.64
2017-05-31T01:49:11.446Z,70.06
2017-05-31T01:49:52.020Z,70.06
2017-05-31T01:50:32.604Z,70.06
2017-05-31T01:51:13.187Z,70.06
2017-05-31T01:51:53.757Z,69.73
2017-05-31T01:52:34.342Z,69.73
2017-05-31T01:53:14.923Z,69.64
2017-05-31T01:53:55.511Z,69.64
2017-05-31T01:54:36.101Z,69.64
2017-05-31T01:55:16.671Z,70.31
2017-05-31T01:55:57.313Z,70.12
2017-05-31T01:56:37.851Z,70.02
2017-05-31T01:57:18.440Z,69.93
2017-05-31T01:57:59.050Z,70.7
2017-05-31T01:58:39.627Z,70.7
2017-05-31T01:59:20.213Z,70.5
2017-05-31T02:00:00.792Z,70.21
2017-05-31T02:00:41.372Z,70.5
2017-05-31T02:01:21.972Z,70.89
2017-05-31T02:02:02.550Z,70.79
2017-05-31T02:02:43.137Z,70.98
2017-05-31T02:03:23.728Z,70.7
2017-05-31T02:04:04.515Z,70.6
2017-05-31T02:04:45.101Z,70.79
2017-05-31T02:05:25.692Z,70.98
2017-05-31T02:06:06.284Z,70.6
2017-05-31T02:06:46.906Z,71.08
2017-05-31T02:07:27.477Z,70.41
2017-05-31T02:08:08.070Z,70.7
2017-05-31T02:08:48.666Z,70.6
2017-05-31T02:09:29.261Z,70.31
2017-05-31T02:10:09.850Z,70.12
2017-05-31T02:10:50.440Z,70.02
2017-05-31T02:11:31.039Z,70.31
2017-05-31T02:12:11.625Z,69.54
2017-05-31T02:12:52.215Z,69.45
2017-05-31T02:13:32.812Z,69.54
2017-05-31T02:14:13.397Z,69.54
2017-05-31T02:14:54.009Z,69.54
2017-05-31T02:15:34.599Z,70.02
2017-05-31T02:16:15.182Z,69.64
2017-05-31T02:16:55.780Z,69.83
2017-05-31T02:17:36.367Z,69.64
2017-05-31T02:18:16.943Z,69.54
2017-05-31T02:18:57.543Z,69.54
2017-05-31T02:19:38.123Z,69.73
2017-05-31T02:20:18.709Z,69.35
2017-05-31T02:20:59.286Z,69.64
2017-05-31T02:21:39.865Z,69.64
2017-05-31T02:22:20.441Z,69.25
2017-05-31T02:23:01.061Z,69.73
2017-05-31T02:23:41.640Z,69.45
2017-05-31T02:24:22.257Z,69.54
2017-05-31T02:25:02.853Z,69.45
2017-05-31T02:25:43.438Z,69.54
2017-05-31T02:26:24.067Z,69.64
2017-05-31T02:27:04.667Z,69.45
2017-05-31T02:27:45.244Z,69.54
2017-05-31T02:28:25.826Z,70.02
2017-05-31T02:29:06.431Z,69.54
2017-05-31T02:29:47.011Z,69.54
2017-05-31T02:30:27.589Z,69.35
2017-05-31T02:31:08.189Z,69.64
2017-05-31T02:31:48.769Z,69.45
2017-05-31T02:32:29.361Z,69.25
2017-05-31T02:33:09.942Z,69.54
2017-05-31T02:33:50.532Z,69.54
2017-05-31T02:34:31.114Z,69.06
2017-05-31T02:35:11.693Z,68.87
2017-05-31T02:35:52.282Z,68.77
2017-05-31T02:36:32.867Z,69.15
2017-05-31T02:37:13.443Z,69.54
2017-05-31T02:37:54.031Z,69.54
2017-05-31T02:38:34.620Z,69.54
2017-05-31T02:39:15.208Z,69.64
2017-05-31T02:39:55.794Z,69.64
2017-05-31T02:40:36.387Z,70.02
2017-05-31T02:41:17.472Z,69.54
2017-05-31T02:42:01.499Z,69.64
2017-05-31T02:42:43.585Z,69.35
2017-05-31T02:43:25.984Z,69.54
2017-05-31T02:44:13.340Z,69.83
2017-05-31T02:44:56.810Z,70.12
2017-05-31T02:45:39.622Z,69.45
2017-05-31T02:46:22.986Z,69.45
2017-05-31T02:47:05.599Z,70.02
2017-05-31T02:47:47.204Z,70.12
2017-05-31T02:48:33.026Z,70.7
2017-05-31T02:49:30.884Z,70.21
2017-05-31T02:50:21.229Z,70.12
2017-05-31T02:51:03.306Z,70.5
2017-05-31T02:51:45.618Z,70.41
2017-05-31T02:52:27.728Z,70.31
2017-05-31T02:53:09.439Z,70.31
2017-05-31T02:53:50.875Z,70.21
2017-05-31T02:54:32.461Z,70.31
2017-05-31T02:55:14.321Z,70.31
2017-05-31T02:55:57.813Z,70.31
2017-05-31T02:56:40.935Z,69.93
2017-05-31T02:57:22.775Z,69.45
2017-05-31T02:58:04.625Z,69.73
2017-05-31T02:58:46.711Z,70.18
2017-05-31T02:59:28.981Z,70.21
2017-05-31T03:00:10.299Z,70.56
2017-05-31T03:00:50.878Z,70.18
2017-05-31T03:01:31.457Z,70.18
2017-05-31T03:02:12.052Z,70.18
2017-05-31T03:02:52.641Z,70.66
2017-05-31T03:03:33.243Z,69.89
2017-05-31T03:04:13.817Z,70.09
2017-05-31T03:04:54.397Z,69.79
2017-05-31T03:05:34.975Z,70.18
2017-05-31T03:06:15.565Z,71.04
2017-05-31T03:06:56.154Z,70.37
2017-05-31T03:07:36.731Z,69.89
2017-05-31T03:08:17.329Z,69.89
2017-05-31T03:08:57.909Z,69.7
2017-05-31T03:09:38.515Z,69.79
2017-05-31T03:10:19.094Z,69.79
2017-05-31T03:10:59.696Z,70.47
2017-05-31T03:11:40.272Z,69.99
2017-05-31T03:12:20.867Z,70.09
2017-05-31T03:13:01.457Z,69.41
2017-05-31T03:13:42.044Z,69.41
2017-05-31T03:14:22.644Z,70.18
2017-05-31T03:15:03.222Z,70.56
2017-05-31T03:15:43.826Z,70.28
2017-05-31T03:16:24.408Z,70.09
2017-05-31T03:17:05.005Z,70.37
2017-05-31T03:17:45.604Z,70.09
2017-05-31T03:18:26.192Z,70.09
2017-05-31T03:19:06.774Z,70.09
2017-05-31T03:19:47.367Z,69.95
2017-05-31T03:20:27.958Z,70.37
2017-05-31T03:21:08.576Z,70.66
2017-05-31T03:21:49.166Z,70.34
2017-05-31T03:22:29.756Z,70.82
2017-05-31T03:23:10.397Z,70.15
2017-05-31T03:23:50.937Z,69.79
2017-05-31T03:24:31.526Z,69.67
2017-05-31T03:25:12.126Z,69.95
2017-05-31T03:25:52.731Z,70.28
2017-05-31T03:26:33.345Z,70.34
2017-05-31T03:27:13.948Z,69.95
2017-05-31T03:27:54.519Z,70.24
2017-05-31T03:28:35.102Z,70.24
2017-05-31T03:29:15.669Z,70.24
2017-05-31T03:29:56.244Z,70.66
2017-05-31T03:30:36.844Z,69.79
2017-05-31T03:31:17.452Z,70.18
2017-05-31T03:31:58.045Z,70.15
2017-05-31T03:32:38.630Z,69.57
2017-05-31T03:33:19.294Z,69.51
2017-05-31T03:33:59.892Z,69.51
2017-05-31T03:34:40.488Z,69.57
2017-05-31T03:35:21.067Z,69.18
2017-05-31T03:36:01.661Z,69.41
2017-05-31T03:36:42.244Z,69.47
2017-05-31T03:37:22.815Z,68.99
2017-05-31T03:38:03.393Z,69.57
2017-05-31T03:38:43.978Z,69.47
2017-05-31T03:39:24.558Z,69.38
2017-05-31T03:40:05.138Z,69.18
2017-05-31T03:40:45.723Z,68.99
2017-05-31T03:41:26.317Z,69.09
2017-05-31T03:42:06.918Z,68.41
2017-05-31T03:42:47.509Z,68.51
2017-05-31T03:43:28.082Z,69.47
2017-05-31T03:44:08.713Z,69.18
2017-05-31T03:44:49.305Z,69.18
2017-05-31T03:45:29.889Z,68.99
2017-05-31T03:46:10.481Z,69.57
2017-05-31T03:46:51.070Z,69.28
2017-05-31T03:47:31.648Z,68.6
2017-05-31T03:48:12.227Z,68.6
2017-05-31T03:48:52.813Z,68.9
2017-05-31T03:49:33.397Z,69.47
2017-05-31T03:50:13.985Z,68.9
2017-05-31T03:50:54.594Z,69.09
2017-05-31T03:51:35.193Z,69.47
2017-05-31T03:52:15.773Z,69.57
2017-05-31T03:52:56.367Z,68.9
2017-05-31T03:53:36.968Z,69.09
2017-05-31T03:54:17.571Z,68.51
2017-05-31T03:54:58.143Z,67.55
2017-05-31T03:55:40.209Z,67.74
2017-05-31T03:57:48.059Z,68.03
2017-05-31T03:58:28.635Z,67.16
2017-05-31T03:59:09.232Z,67.07
2017-05-31T04:00:07.068Z,66.88
2017-05-31T04:01:43.626Z,66.39
2017-05-31T04:02:28.889Z,66.3
2017-05-31T04:03:09.465Z,66.39
2017-05-31T04:03:50.046Z,66.65
2017-05-31T04:04:30.664Z,66.97
2017-05-31T04:05:11.265Z,67.13
2017-05-31T04:05:51.852Z,67.32
2017-05-31T04:06:32.429Z,66.78
2017-05-31T04:07:13.012Z,67.22
2017-05-31T04:07:53.601Z,67.42
2017-05-31T04:08:34.192Z,66.49
2017-05-31T04:09:14.778Z,66.74
2017-05-31T04:09:55.358Z,66.17
2017-05-31T04:10:35.952Z,66.74
2017-05-31T04:11:16.546Z,66.55
2017-05-31T04:11:57.133Z,66.17
2017-05-31T04:12:37.719Z,65.97
2017-05-31T04:13:18.314Z,65.59
2017-05-31T04:13:58.893Z,65.88
2017-05-31T04:14:39.490Z,66.07
2017-05-31T04:15:20.066Z,66.07
2017-05-31T04:16:00.636Z,66.65
2017-05-31T04:16:41.231Z,67.13
2017-05-31T04:17:21.825Z,66.27
2017-05-31T04:18:02.393Z,66.27
2017-05-31T04:18:42.974Z,66.07
2017-05-31T04:19:23.562Z,66.74
2017-05-31T04:20:04.132Z,67.03
2017-05-31T04:20:44.716Z,67.13
2017-05-31T04:21:25.308Z,67.71
2017-05-31T04:22:05.887Z,66.55
2017-05-31T04:22:46.514Z,66.84
2017-05-31T04:23:27.094Z,67.07
2017-05-31T04:24:07.679Z,66.07
2017-05-31T04:24:48.256Z,66.36
2017-05-31T04:25:28.831Z,66.07
2017-05-31T04:26:09.420Z,65.3
2017-05-31T04:26:50.006Z,66.39
2017-05-31T04:27:30.587Z,66.36
2017-05-31T04:28:11.190Z,65.78
2017-05-31T04:28:51.769Z,65.69
2017-05-31T04:29:32.354Z,66.3
2017-05-31T04:30:12.933Z,65.59
2017-05-31T04:30:53.521Z,66.39
2017-05-31T04:31:34.134Z,66.49
2017-05-31T04:32:14.717Z,66.49
2017-05-31T04:32:55.306Z,66.1
2017-05-31T04:33:35.891Z,66.17
2017-05-31T04:34:16.509Z,66.2
2017-05-31T04:34:57.090Z,64.76
2017-05-31T04:35:37.687Z,65.72
2017-05-31T04:36:18.284Z,65.33
2017-05-31T04:36:58.879Z,65.81
2017-05-31T04:37:39.451Z,64.66
2017-05-31T04:38:20.035Z,64.56
2017-05-31T04:39:00.624Z,65.43
2017-05-31T04:39:41.204Z,66.68
2017-05-31T04:40:21.840Z,64.66
2017-05-31T04:41:02.435Z,64.66
2017-05-31T04:41:43.024Z,65.24
2017-05-31T04:42:23.621Z,65.78
2017-05-31T04:43:04.210Z,66.74
2017-05-31T04:43:44.794Z,66.36
2017-05-31T04:44:25.388Z,66.39
2017-05-31T04:45:05.975Z,66.3
2017-05-31T04:45:46.558Z,66.58
2017-05-31T04:46:27.150Z,65.72
2017-05-31T04:47:07.771Z,65.05
2017-05-31T04:47:48.363Z,64.95
2017-05-31T04:48:28.945Z,64.95
2017-05-31T04:49:09.540Z,64.56
2017-05-31T04:49:50.133Z,64.37
2017-05-31T04:50:30.712Z,64.47
2017-05-31T04:51:11.305Z,64.56
2017-05-31T04:51:51.906Z,65.05
2017-05-31T04:52:32.495Z,64.47
2017-05-31T04:53:13.076Z,64.56
2017-05-31T04:53:53.657Z,64.66
2017-05-31T04:54:34.260Z,65.2
2017-05-31T04:55:14.853Z,64.66
2017-05-31T04:55:55.438Z,65.01
2017-05-31T04:56:36.010Z,64.47
2017-05-31T04:57:16.590Z,64.66
2017-05-31T04:57:57.184Z,64.66
2017-05-31T04:58:37.764Z,65.63
2017-05-31T04:59:18.340Z,64.76
2017-05-31T04:59:58.924Z,64.66
2017-05-31T05:00:39.495Z,65.3
2017-05-31T05:01:20.081Z,64.47
2017-05-31T05:02:00.665Z,64.66
2017-05-31T05:02:41.247Z,64.37
2017-05-31T05:03:21.831Z,64.82
2017-05-31T05:04:02.439Z,64.76
2017-05-31T05:04:43.017Z,64.56
2017-05-31T05:05:23.600Z,63.89
2017-05-31T05:06:04.174Z,64.63
2017-05-31T05:06:44.767Z,64.73
2017-05-31T05:07:25.365Z,64.73
2017-05-31T05:08:05.941Z,65.2
2017-05-31T05:08:46.537Z,65.69
2017-05-31T05:09:27.130Z,64.63
2017-05-31T05:10:07.728Z,64.63
2017-05-31T05:10:48.300Z,64.53
2017-05-31T05:11:28.882Z,64.63
2017-05-31T05:12:09.474Z,65.01
2017-05-31T05:12:50.061Z,65.01
2017-05-31T05:13:30.644Z,64.73
2017-05-31T05:14:11.222Z,64.92
2017-05-31T05:14:51.847Z,64.53
2017-05-31T05:15:32.473Z,64.53
2017-05-31T05:16:13.059Z,64.82
2017-05-31T05:16:53.642Z,65.59
2017-05-31T05:17:34.230Z,65.01
2017-05-31T05:18:14.831Z,64.34
2017-05-31T05:18:55.424Z,64.63
2017-05-31T05:19:36.006Z,64.73
2017-05-31T05:20:16.598Z,65.01
2017-05-31T05:20:57.178Z,64.92
2017-05-31T05:21:37.755Z,65.01
2017-05-31T05:22:18.350Z,65.3
2017-05-31T05:22:58.943Z,65.59
2017-05-31T05:23:39.538Z,65.01
2017-05-31T05:24:20.120Z,64.34
2017-05-31T05:25:00.701Z,64.43
2017-05-31T05:25:41.283Z,64.73
2017-05-31T05:26:21.917Z,64.34
2017-05-31T05:27:02.485Z,64.73
2017-05-31T05:27:43.078Z,64.25
2017-05-31T05:28:23.816Z,64.63
2017-05-31T05:29:04.397Z,64.43
2017-05-31T05:29:44.981Z,64.25
2017-05-31T05:30:25.635Z,64.76
2017-05-31T05:31:06.248Z,63.57
2017-05-31T05:31:46.866Z,63.41
2017-05-31T05:32:27.443Z,63.22
2017-05-31T05:33:08.099Z,63.31
2017-05-31T05:33:48.752Z,62.93
2017-05-31T05:34:29.465Z,62.93
2017-05-31T05:35:10.145Z,63.22
2017-05-31T05:35:50.746Z,62.74
2017-05-31T05:36:31.352Z,63.12
2017-05-31T05:37:11.957Z,63.99
2017-05-31T05:37:52.611Z,64.28
2017-05-31T05:38:33.200Z,63.6
2017-05-31T05:39:13.798Z,62.57
2017-05-31T05:39:54.404Z,62.96
2017-05-31T05:40:34.998Z,63.34
2017-05-31T05:41:15.611Z,63.06
2017-05-31T05:41:56.235Z,62
2017-05-31T05:42:36.900Z,61.13
2017-05-31T05:43:17.491Z,61.42
2017-05-31T05:43:58.098Z,61.52
2017-05-31T05:44:38.711Z,61.1
2017-05-31T05:45:19.287Z,61.68
2017-05-31T05:45:59.898Z,62.35
2017-05-31T05:46:40.529Z,62.74
2017-05-31T05:47:21.139Z,63.02
2017-05-31T05:48:01.735Z,64.08
2017-05-31T05:48:42.326Z,64.02
2017-05-31T05:49:22.973Z,63.54
2017-05-31T05:50:03.550Z,62.77
2017-05-31T05:50:44.156Z,62.19
2017-05-31T05:51:24.747Z,61.52
2017-05-31T05:52:05.363Z,61.65
2017-05-31T05:52:45.947Z,61.45
2017-05-31T05:53:26.543Z,61.45
2017-05-31T05:54:07.147Z,60.68
2017-05-31T05:54:47.748Z,60.97
2017-05-31T05:55:29.622Z,61.35
2017-05-31T05:56:11.159Z,60.52
2017-05-31T05:56:52.768Z,59.94
2017-05-31T05:57:33.358Z,59.45
2017-05-31T05:58:13.964Z,59.27
2017-05-31T05:58:54.690Z,58.49
2017-05-31T05:59:35.395Z,58.91
2017-05-31T06:00:16.126Z,59.48
2017-05-31T06:00:57.044Z,58.52
2017-05-31T06:01:37.662Z,57.65
2017-05-31T06:02:18.266Z,57.07
2017-05-31T06:02:58.951Z,57.85
2017-05-31T06:03:39.540Z,56.01
2017-05-31T06:04:20.216Z,56.4
2017-05-31T06:05:00.857Z,56.11
2017-05-31T06:05:41.444Z,56.69
2017-05-31T06:06:22.051Z,56.4
2017-05-31T06:07:03.636Z,56.98
2017-05-31T06:07:44.280Z,57.59
2017-05-31T06:08:24.864Z,57.49
2017-05-31T06:09:05.832Z,57.68
2017-05-31T06:09:46.444Z,57.29
2017-05-31T06:10:27.051Z,55.66
2017-05-31T06:11:07.636Z,56.43
2017-05-31T06:11:48.383Z,57.01
2017-05-31T06:12:28.982Z,56.14
2017-05-31T06:13:09.595Z,55.56
2017-05-31T06:13:50.273Z,55.56
2017-05-31T06:14:30.806Z,54.72
2017-05-31T06:15:11.422Z,54.53
2017-05-31T06:15:57.193Z,56.26
2017-05-31T06:16:39.074Z,55.59
2017-05-31T06:17:19.659Z,54.91
2017-05-31T06:18:00.246Z,54.05
2017-05-31T06:18:40.830Z,53.27
2017-05-31T06:19:21.428Z,54.72
2017-05-31T06:20:05.054Z,53.95
2017-05-31T06:20:45.641Z,53.17
2017-05-31T06:21:26.230Z,52.69
2017-05-31T06:22:06.822Z,53.17
2017-05-31T06:22:47.422Z,53.66
2017-05-31T06:23:28.005Z,53.17
2017-05-31T06:24:08.621Z,52.98
2017-05-31T06:24:49.190Z,52.89
2017-05-31T06:25:30.953Z,51.73
2017-05-31T06:26:11.537Z,51.34
2017-05-31T06:26:52.129Z,51.61
2017-05-31T06:27:32.730Z,52.95
2017-05-31T06:28:13.340Z,53.15
2017-05-31T06:28:53.936Z,52.76
2017-05-31T06:29:35.696Z,52.86
2017-05-31T06:30:16.334Z,53.56
2017-05-31T06:30:56.977Z,53.25
2017-05-31T06:31:37.578Z,53.56
2017-05-31T06:32:18.163Z,53.75
2017-05-31T06:32:58.778Z,54.91
2017-05-31T06:33:39.376Z,54.72
2017-05-31T06:34:19.971Z,54.65
2017-05-31T06:35:00.560Z,54.55
2017-05-31T06:35:41.173Z,52.14
2017-05-31T06:36:21.767Z,51.37
2017-05-31T06:37:02.354Z,50.5
2017-05-31T06:37:42.958Z,49.82
2017-05-31T06:38:23.553Z,50.21
2017-05-31T06:39:04.149Z,50.59
2017-05-31T06:39:46.755Z,51.85
2017-05-31T06:40:32.384Z,52.11
2017-05-31T06:41:12.972Z,52.59
2017-05-31T06:41:54.672Z,52.21
2017-05-31T06:42:37.308Z,52.4
2017-05-31T06:43:20.087Z,52.69
2017-05-31T06:44:06.247Z,52.5
2017-05-31T06:44:49.319Z,52.21
2017-05-31T06:45:59.185Z,52.47
2017-05-31T06:46:40.935Z,53.05
2017-05-31T06:47:23.449Z,53.44
2017-05-31T06:48:04.050Z,53.83
2017-05-31T06:48:44.638Z,54.02
2017-05-31T06:49:25.226Z,53.25
2017-05-31T06:50:05.834Z,53.73
2017-05-31T06:50:46.421Z,53.92
2017-05-31T06:51:27.030Z,53.53
2017-05-31T06:52:07.620Z,54.11
2017-05-31T06:52:48.215Z,54.5
2017-05-31T06:53:28.804Z,54.69
2017-05-31T06:54:09.421Z,53.63
2017-05-31T06:54:50.030Z,53.53
2017-05-31T06:55:30.627Z,53.92
2017-05-31T06:56:11.207Z,53.63
2017-05-31T06:56:51.797Z,56.33
2017-05-31T06:57:32.384Z,57.04
2017-05-31T06:58:12.963Z,55.59
2017-05-31T06:58:53.613Z,55.78
2017-05-31T06:59:34.208Z,53.27
2017-05-31T07:00:14.801Z,53.56
2017-05-31T07:00:58.896Z,55.01
2017-05-31T07:01:42.807Z,55.52
2017-05-31T07:02:23.402Z,54.55
2017-05-31T07:03:03.986Z,53.49
2017-05-31T07:03:44.581Z,53.52
2017-05-31T07:04:25.161Z,52.75
2017-05-31T07:05:05.759Z,52.84
2017-05-31T07:05:46.359Z,53.52
2017-05-31T07:06:26.964Z,53.23
2017-05-31T07:07:07.558Z,52.45
2017-05-31T07:07:49.283Z,51.01
2017-05-31T07:08:31.742Z,51.1
2017-05-31T07:09:12.339Z,52.26
2017-05-31T07:09:55.469Z,51.78
2017-05-31T07:10:36.745Z,52.84
2017-05-31T07:11:22.395Z,52.94
2017-05-31T07:12:04.442Z,52.55
2017-05-31T07:12:45.505Z,52.17
2017-05-31T07:13:29.885Z,51.49
2017-05-31T07:14:10.519Z,51.61
2017-05-31T07:14:51.085Z,52
2017-05-31T07:15:37.441Z,49
2017-05-31T07:16:18.062Z,48.9
2017-05-31T07:16:58.639Z,49.97
2017-05-31T07:17:39.235Z,51.32
2017-05-31T07:18:19.820Z,50.67
2017-05-31T07:19:00.436Z,49
2017-05-31T07:19:41.112Z,50.45
2017-05-31T07:20:21.654Z,50.67
2017-05-31T07:21:02.250Z,50.76
2017-05-31T07:21:42.867Z,49.7
2017-05-31T07:22:25.133Z,48.03
2017-05-31T07:23:05.757Z,48.52
2017-05-31T07:23:46.372Z,48.23
2017-05-31T07:24:26.961Z,48.49
2017-05-31T07:25:07.556Z,48.59
2017-05-31T07:25:48.145Z,49.92
2017-05-31T07:26:33.960Z,49.53
2017-05-31T07:27:16.326Z,49.63
2017-05-31T07:27:56.922Z,49.63
2017-05-31T07:28:37.597Z,49.7
2017-05-31T07:29:18.906Z,49.99
2017-05-31T07:30:00.506Z,50.54
2017-05-31T07:30:43.066Z,50.93
2017-05-31T07:31:23.666Z,52.47
2017-05-31T07:32:04.255Z,53.41
2017-05-31T07:32:44.841Z,53.7
2017-05-31T07:33:25.430Z,53.89
2017-05-31T07:34:06.013Z,53.41
2017-05-31T07:34:46.600Z,53.13
2017-05-31T07:35:33.282Z,53.31
2017-05-31T07:36:13.875Z,53.03
2017-05-31T07:36:54.460Z,53.22
2017-05-31T07:37:35.053Z,53.22
2017-05-31T07:38:19.695Z,53.58
2017-05-31T07:39:04.509Z,53.99
2017-05-31T07:39:45.110Z,53.7
2017-05-31T07:40:25.781Z,53.99
2017-05-31T07:41:06.375Z,55.05
2017-05-31T07:41:46.965Z,55.05
2017-05-31T07:42:29.822Z,55.05
2017-05-31T07:43:12.209Z,55.15
2017-05-31T07:43:52.796Z,55.05
2017-05-31T07:44:33.387Z,54.66
2017-05-31T07:45:13.979Z,54.57
2017-05-31T07:45:54.563Z,53.99
2017-05-31T07:46:36.233Z,53.51
2017-05-31T07:47:16.880Z,53.41
2017-05-31T07:47:57.498Z,53.03
2017-05-31T07:48:40.265Z,53.09
2017-05-31T07:49:21.415Z,53.39
2017-05-31T07:50:01.995Z,53.29
2017-05-31T07:50:42.566Z,53.39
2017-05-31T07:51:23.153Z,53
2017-05-31T07:52:03.815Z,53.48
2017-05-31T07:52:48.205Z,55.79
2017-05-31T07:53:28.787Z,55.7
2017-05-31T07:54:09.408Z,54.83
2017-05-31T07:54:50.096Z,54.66
2017-05-31T07:55:30.677Z,53.7
2017-05-31T07:56:11.415Z,54.57
2017-05-31T07:56:51.996Z,54.21
2017-05-31T07:57:32.611Z,51.32
2017-05-31T07:58:13.226Z,51.61
2017-05-31T07:58:53.809Z,50.57
2017-05-31T07:59:34.400Z,50.16
2017-05-31T08:00:15.366Z,49.99
2017-05-31T08:00:55.973Z,50.96
2017-05-31T08:01:36.558Z,51.12
2017-05-31T08:02:17.154Z,50.93
2017-05-31T08:02:57.739Z,51.89
2017-05-31T08:03:38.342Z,53.44
2017-05-31T08:04:18.937Z,53.73
2017-05-31T08:04:59.527Z,52.67
2017-05-31T08:05:40.114Z,51.25
2017-05-31T08:06:21.442Z,52.31
2017-05-31T08:07:02.024Z,52.5
2017-05-31T08:07:42.602Z,52.5
2017-05-31T08:08:23.202Z,51.53
2017-05-31T08:09:08.250Z,51.07
2017-05-31T08:09:53.920Z,49.73
2017-05-31T08:10:34.511Z,49.92
2017-05-31T08:11:15.113Z,48.18
2017-05-31T08:11:55.898Z,47.7
2017-05-31T08:12:36.495Z,48.66
2017-05-31T08:13:17.072Z,50.89
2017-05-31T08:13:57.674Z,51.75
2017-05-31T08:14:38.273Z,52.91
2017-05-31T08:15:18.863Z,51.46
2017-05-31T08:15:59.457Z,52.45
2017-05-31T08:16:40.034Z,53.52
2017-05-31T08:17:20.618Z,53.52
2017-05-31T08:18:01.205Z,50.81
2017-05-31T08:18:41.801Z,49.75
2017-05-31T08:19:22.383Z,50.16
2017-05-31T08:20:03.040Z,49.87
2017-05-31T08:20:43.629Z,50.74
2017-05-31T08:21:24.229Z,48.13
2017-05-31T08:22:04.831Z,47.74
2017-05-31T08:22:45.432Z,47.63
2017-05-31T08:23:26.024Z,48.88
2017-05-31T08:24:06.608Z,49.17
2017-05-31T08:24:47.190Z,48.39
2017-05-31T08:25:27.777Z,48.69
2017-05-31T08:26:08.415Z,48.86
2017-05-31T08:26:49.007Z,48.37
2017-05-31T08:27:29.583Z,48.76
2017-05-31T08:28:10.168Z,49.82
2017-05-31T08:28:50.759Z,49.32
2017-05-31T08:29:31.348Z,49.99
2017-05-31T08:30:11.938Z,50.18
2017-05-31T08:30:52.522Z,51.34
2017-05-31T08:31:33.131Z,52.11
2017-05-31T08:32:13.746Z,51.82
2017-05-31T08:32:54.335Z,51.34
2017-05-31T08:33:34.911Z,51.7
2017-05-31T08:34:15.513Z,52.19
2017-05-31T08:34:56.089Z,53.25
2017-05-31T08:35:36.673Z,53.83
2017-05-31T08:36:17.271Z,53.34
2017-05-31T08:36:57.875Z,54.24
2017-05-31T08:37:38.455Z,53.95
2017-05-31T08:38:19.099Z,51.82
2017-05-31T08:38:59.688Z,50.57
2017-05-31T08:39:40.291Z,50.86
2017-05-31T08:40:20.867Z,50.38
2017-05-31T08:41:01.526Z,53.01
2017-05-31T08:41:42.161Z,53.59
2017-05-31T08:42:22.757Z,53.39
2017-05-31T08:43:03.364Z,53.52
2017-05-31T08:43:43.976Z,51.49
2017-05-31T08:44:24.622Z,51.68
2017-05-31T08:45:05.236Z,52.07
2017-05-31T08:45:45.838Z,52.55
2017-05-31T08:46:26.470Z,53.35
2017-05-31T08:47:07.088Z,49.49
2017-05-31T08:47:47.682Z,49.39
2017-05-31T08:48:28.265Z,49.58
2017-05-31T08:49:08.856Z,50.16
2017-05-31T08:49:49.453Z,50.16
2017-05-31T08:50:30.069Z,47.26